createdAt,value
2022-07-30T05:34:16.552Z,10.50
2022-07-30T05:37:16.027Z,8.80
2022-07-30T05:40:45.067Z,10.30
2022-07-30T05:47:10.396Z,8.20
2022-07-30T05:49:39.645Z,6.90
2022-07-30T05:52:19.020Z,8.60
2022-07-30T05:55:27.979Z,11.30
2022-07-30T05:58:16.486Z,7.80
2022-07-30T06:00:45.074Z,6.70
2022-07-30T06:03:26.042Z,8.90
2022-07-30T06:06:23.286Z,6.30
2022-07-30T06:09:15.506Z,9.70
2022-07-30T06:12:01.360Z,9.20
2022-07-30T06:15:28.117Z,9.00
2022-07-30T06:18:49.435Z,8.20
2022-07-30T06:25:55.260Z,12.20
2022-07-30T06:28:39.909Z,11.30
2022-07-30T07:20:01.235Z,10.10
2022-07-30T07:26:01.707Z,7.70
2022-07-30T07:29:03.493Z,9.00
2022-07-30T07:52:47.913Z,8.30
2022-07-30T07:59:39.995Z,15.00
2022-07-30T08:02:33.421Z,10.20
2022-07-30T08:18:18.934Z,8.10
2022-07-30T08:20:58.554Z,10.40
2022-07-30T08:27:58.435Z,10.50
2022-07-30T09:32:18.211Z,11.40
2022-07-30T09:35:14.829Z,9.50
2022-07-30T09:38:58.624Z,9.30
2022-07-30T09:42:03.422Z,8.30
2022-07-30T09:44:32.961Z,11.60
2022-07-30T09:47:03.093Z,9.70
2022-07-30T09:50:30.311Z,8.90
2022-07-30T09:53:09.215Z,10.40
2022-07-30T09:55:50.516Z,9.60
2022-07-30T09:59:00.008Z,8.00
2022-07-30T10:03:12.665Z,9.20
2022-07-30T10:06:35.501Z,10.80
2022-07-30T10:09:54.809Z,15.60
2022-07-30T10:12:25.053Z,6.30
2022-07-30T10:15:06.205Z,13.10
2022-07-30T10:17:38.089Z,7.00
2022-07-30T10:20:33.253Z,10.70
2022-07-30T10:23:27.085Z,14.20
2022-07-30T10:26:35.104Z,14.00
2022-07-30T10:29:22.841Z,7.80
2022-07-30T10:32:02.042Z,9.10
2022-07-30T10:35:56.178Z,9.10
2022-07-30T10:42:43.090Z,13.00
2022-07-30T10:48:19.842Z,10.90
2022-07-30T10:54:14.928Z,9.40
2022-07-30T10:55:01.143Z,8.20
2022-07-30T11:06:15.784Z,11.80
2022-07-30T11:09:20.686Z,17.70
2022-07-30T11:11:59.461Z,9.20
2022-07-30T11:12:53.029Z,9.60
2022-07-30T11:16:14.898Z,21.10
2022-07-30T11:20:11.990Z,10.80
2022-07-30T11:35:37.540Z,12.30
2022-07-30T11:38:09.030Z,9.10
2022-07-30T11:41:11.057Z,14.60
2022-07-30T11:43:37.232Z,9.70
2022-07-30T11:47:03.328Z,12.50
2022-07-30T11:50:44.343Z,9.10
2022-07-30T11:54:00.503Z,9.70
2022-07-30T11:58:45.949Z,9.40
2022-07-30T12:05:57.203Z,10.50
2022-07-30T12:09:11.133Z,8.40
2022-07-30T12:11:50.968Z,11.80
2022-07-30T12:14:20.212Z,10.20
2022-07-30T12:16:54.131Z,9.80
2022-07-30T12:19:21.191Z,9.40
2022-07-30T12:21:53.908Z,23.60
2022-07-30T12:24:31.113Z,9.30
2022-07-30T12:27:08.378Z,9.10
2022-07-30T12:29:51.016Z,8.80
2022-07-30T12:32:20.940Z,9.30
2022-07-30T12:35:04.034Z,10.10
2022-07-30T12:37:31.190Z,10.80
2022-07-30T12:40:12.929Z,9.50
2022-07-30T12:43:46.306Z,10.20
2022-07-30T12:46:34.122Z,9.60
2022-07-30T12:49:19.081Z,11.60
2022-07-30T12:52:40.080Z,15.40
2022-07-30T12:55:35.163Z,9.70
2022-07-30T12:58:10.807Z,8.80
2022-07-30T13:01:07.066Z,11.90
2022-07-30T13:03:40.084Z,16.50
2022-07-30T13:06:17.422Z,14.90
2022-07-30T13:08:57.974Z,17.40
2022-07-30T13:11:54.987Z,34.20
2022-07-30T13:14:23.645Z,84.00
2022-07-30T13:17:05.619Z,44.40
2022-07-30T13:19:35.908Z,23.40
2022-07-30T13:22:03.278Z,16.80
2022-07-30T13:30:51.558Z,21.40
2022-07-30T13:33:21.323Z,17.40
2022-07-30T13:36:04.491Z,20.20
2022-07-30T13:38:37.656Z,17.60
2022-07-30T13:41:05.368Z,14.70
2022-07-30T13:43:33.842Z,18.20
2022-07-30T13:46:04.465Z,16.00
2022-07-30T13:48:32.119Z,15.10
2022-07-30T13:51:04.206Z,17.50
2022-07-30T14:00:40.320Z,12.80
2022-07-30T14:03:11.873Z,14.70
2022-07-30T14:14:13.965Z,15.90
2022-07-30T14:17:26.075Z,19.50
2022-07-30T14:20:52.939Z,13.60
2022-07-30T14:27:20.725Z,15.60
2022-07-30T14:29:52.046Z,14.90
2022-07-30T14:32:36.908Z,12.70
2022-07-30T14:35:17.049Z,13.30
2022-07-30T14:37:58.462Z,17.30
2022-07-30T14:40:49.243Z,20.60
2022-07-30T14:52:44.360Z,17.20
2022-07-30T14:55:27.610Z,15.50
2022-07-30T14:58:09.137Z,19.20
2022-07-30T15:01:27.904Z,16.90
2022-07-30T15:08:38.864Z,18.90
2022-07-30T15:15:24.057Z,16.90
2022-07-30T15:23:49.800Z,19.90
2022-07-30T15:34:12.122Z,18.20
2022-07-30T15:37:18.669Z,17.00
2022-07-30T15:39:58.842Z,21.60
2022-07-30T15:55:12.945Z,22.90
2022-07-30T15:59:04.195Z,25.80
2022-07-30T17:22:02.531Z,19.90
2022-07-30T17:29:29.266Z,27.60
2022-07-30T17:35:27.121Z,20.20
2022-07-30T17:38:21.350Z,17.40
2022-07-30T17:41:16.185Z,15.10
2022-07-30T17:44:18.831Z,15.80
2022-07-30T17:50:52.197Z,12.70
2022-07-30T17:53:19.621Z,16.40
2022-07-30T17:55:59.137Z,16.90
2022-07-30T17:58:58.567Z,17.00
2022-07-30T18:02:09.719Z,18.80
2022-07-30T18:09:39.543Z,13.40
2022-07-30T18:12:39.737Z,11.70
2022-07-30T18:15:35.877Z,12.50
2022-07-30T18:19:35.671Z,12.30
2022-07-30T18:26:48.305Z,21.00
2022-07-30T18:29:16.421Z,14.70
2022-07-30T18:31:46.035Z,19.80
2022-07-30T18:34:37.483Z,18.10
2022-07-30T18:37:12.950Z,22.70
2022-07-30T18:40:04.153Z,23.80
2022-07-30T18:42:35.044Z,17.30
2022-07-30T18:45:13.350Z,15.00
2022-07-30T18:47:49.516Z,15.60
2022-07-30T18:50:37.597Z,13.10
2022-07-30T18:53:47.286Z,18.70
2022-07-30T18:56:14.487Z,13.00
2022-07-30T18:58:46.000Z,13.00
2022-07-30T19:01:26.095Z,14.50
2022-07-30T19:04:19.255Z,13.70
2022-07-30T19:07:57.706Z,17.30
2022-07-30T19:11:19.648Z,21.80
2022-07-30T19:13:56.557Z,14.40
2022-07-30T19:17:00.452Z,12.80
2022-07-30T19:20:37.908Z,16.10
2022-07-30T19:24:12.854Z,14.90
2022-07-30T19:27:47.385Z,15.80
2022-07-30T19:34:35.515Z,13.70
2022-07-30T19:37:25.302Z,16.80
2022-07-30T19:40:29.033Z,17.50
2022-07-30T19:43:57.702Z,15.40
2022-07-30T19:46:32.256Z,13.50
2022-07-30T19:49:06.780Z,13.60
2022-07-30T19:52:07.276Z,12.40
2022-07-30T19:54:45.198Z,12.90
2022-07-30T19:57:53.534Z,12.40
2022-07-30T20:00:37.249Z,17.00
2022-07-30T20:47:13.217Z,9.60
2022-07-30T21:37:10.306Z,10.60
2022-07-30T21:40:24.596Z,14.50
2022-07-30T22:08:10.646Z,10.30
2022-07-30T22:18:48.533Z,11.20
2022-07-30T22:23:38.072Z,12.10
2022-07-30T22:23:39.663Z,12.40
2022-07-30T22:27:09.753Z,10.90
2022-07-30T22:35:58.729Z,10.60
2022-07-30T22:39:51.459Z,10.50
2022-07-30T22:56:27.837Z,19.50
2022-07-30T23:00:34.586Z,15.00
2022-07-30T23:07:02.216Z,13.50
2022-07-30T23:12:20.000Z,16.80
2022-07-30T23:14:45.355Z,11.60
2022-07-30T23:26:02.048Z,12.20
2022-07-30T23:26:53.508Z,9.70
2022-07-30T23:45:16.626Z,5.70
